sensor_id;sensor_type;location;lat;lon;timestamp;temperature;humidity
34768;DHT22;21755;43.608;1.236;2024-02-26T00:01:39;8.80;99.90
34768;DHT22;21755;43.608;1.236;2024-02-26T00:04:05;8.80;99.90
34768;DHT22;21755;43.608;1.236;2024-02-26T00:06:31;8.80;99.90
34768;DHT22;21755;43.608;1.236;2024-02-26T00:08:58;8.80;99.90
34768;DHT22;21755;43.608;1.236;2024-02-26T00:11:23;8.80;99.90
34768;DHT22;21755;43.608;1.236;2024-02-26T00:13:49;8.80;99.90
34768;DHT22;21755;43.608;1.236;2024-02-26T00:16:15;8.70;99.90
34768;DHT22;21755;43.608;1.236;2024-02-26T00:18:41;8.80;99.90
34768;DHT22;21755;43.608;1.236;2024-02-26T00:21:07;8.70;99.90
34768;DHT22;21755;43.608;1.236;2024-02-26T00:23:33;8.70;99.90
34768;DHT22;21755;43.608;1.236;2024-02-26T00:25:59;8.70;99.90
34768;DHT22;21755;43.608;1.236;2024-02-26T00:28:24;8.70;99.90
34768;DHT22;21755;43.608;1.236;2024-02-26T00:30:50;8.70;99.90
34768;DHT22;21755;43.608;1.236;2024-02-26T00:33:22;8.70;99.90
34768;DHT22;21755;43.608;1.236;2024-02-26T00:35:48;8.70;99.90
34768;DHT22;21755;43.608;1.236;2024-02-26T00:38:15;8.70;99.90
34768;DHT22;21755;43.608;1.236;2024-02-26T00:40:41;8.70;99.90
34768;DHT22;21755;43.608;1.236;2024-02-26T00:43:10;8.70;99.90
34768;DHT22;21755;43.608;1.236;2024-02-26T00:45:36;8.70;99.90
34768;DHT22;21755;43.608;1.236;2024-02-26T00:48:01;8.70;99.90
34768;DHT22;21755;43.608;1.236;2024-02-26T00:50:40;8.70;99.90
34768;DHT22;21755;43.608;1.236;2024-02-26T00:53:05;8.70;99.90
34768;DHT22;21755;43.608;1.236;2024-02-26T00:55:31;8.70;99.90
34768;DHT22;21755;43.608;1.236;2024-02-26T00:57:57;8.60;99.90
34768;DHT22;21755;43.608;1.236;2024-02-26T01:00:23;8.60;99.90
34768;DHT22;21755;43.608;1.236;2024-02-26T01:02:49;8.60;99.90
34768;DHT22;21755;43.608;1.236;2024-02-26T01:05:15;8.60;99.90
34768;DHT22;21755;43.608;1.236;2024-02-26T01:07:42;8.60;99.90
34768;DHT22;21755;43.608;1.236;2024-02-26T01:10:08;8.60;99.90
34768;DHT22;21755;43.608;1.236;2024-02-26T01:12:34;8.60;99.90
34768;DHT22;21755;43.608;1.236;2024-02-26T01:15:01;8.60;99.90
34768;DHT22;21755;43.608;1.236;2024-02-26T01:17:28;8.60;99.90
34768;DHT22;21755;43.608;1.236;2024-02-26T01:19:54;8.60;99.90
34768;DHT22;21755;43.608;1.236;2024-02-26T01:22:20;8.50;99.90
34768;DHT22;21755;43.608;1.236;2024-02-26T01:24:46;8.50;99.90
34768;DHT22;21755;43.608;1.236;2024-02-26T01:27:12;8.50;99.90
34768;DHT22;21755;43.608;1.236;2024-02-26T01:29:39;8.50;99.90
34768;DHT22;21755;43.608;1.236;2024-02-26T01:32:05;8.50;99.90
34768;DHT22;21755;43.608;1.236;2024-02-26T01:34:32;8.50;99.90
34768;DHT22;21755;43.608;1.236;2024-02-26T01:36:58;8.50;99.90
34768;DHT22;21755;43.608;1.236;2024-02-26T01:39:24;8.50;99.90
34768;DHT22;21755;43.608;1.236;2024-02-26T01:41:49;8.50;99.90
34768;DHT22;21755;43.608;1.236;2024-02-26T01:44:15;8.40;99.90
34768;DHT22;21755;43.608;1.236;2024-02-26T01:46:41;8.40;99.90
34768;DHT22;21755;43.608;1.236;2024-02-26T01:49:08;8.40;99.90
34768;DHT22;21755;43.608;1.236;2024-02-26T01:51:38;8.40;99.90
34768;DHT22;21755;43.608;1.236;2024-02-26T01:54:04;8.40;99.90
34768;DHT22;21755;43.608;1.236;2024-02-26T01:56:31;8.40;99.90
34768;DHT22;21755;43.608;1.236;2024-02-26T01:59:00;8.40;99.90
34768;DHT22;21755;43.608;1.236;2024-02-26T02:01:31;8.30;99.90
34768;DHT22;21755;43.608;1.236;2024-02-26T02:03:59;8.30;99.90
34768;DHT22;21755;43.608;1.236;2024-02-26T02:06:25;8.30;99.90
34768;DHT22;21755;43.608;1.236;2024-02-26T02:08:52;8.30;99.90
34768;DHT22;21755;43.608;1.236;2024-02-26T02:11:19;8.30;99.90
34768;DHT22;21755;43.608;1.236;2024-02-26T02:13:45;8.20;99.90
34768;DHT22;21755;43.608;1.236;2024-02-26T02:16:12;8.20;99.90
34768;DHT22;21755;43.608;1.236;2024-02-26T02:18:37;8.20;99.90
34768;DHT22;21755;43.608;1.236;2024-02-26T02:21:03;8.20;99.90
34768;DHT22;21755;43.608;1.236;2024-02-26T02:23:29;8.20;99.90
34768;DHT22;21755;43.608;1.236;2024-02-26T02:25:57;8.20;99.90
34768;DHT22;21755;43.608;1.236;2024-02-26T02:28:24;8.20;99.90
34768;DHT22;21755;43.608;1.236;2024-02-26T02:30:51;8.10;99.90
34768;DHT22;21755;43.608;1.236;2024-02-26T02:33:17;8.10;99.90
34768;DHT22;21755;43.608;1.236;2024-02-26T02:35:43;8.10;99.90
34768;DHT22;21755;43.608;1.236;2024-02-26T02:38:09;8.10;99.80
34768;DHT22;21755;43.608;1.236;2024-02-26T02:40:35;8.10;99.60
34768;DHT22;21755;43.608;1.236;2024-02-26T02:43:02;8.10;99.20
34768;DHT22;21755;43.608;1.236;2024-02-26T02:45:28;8.00;98.70
34768;DHT22;21755;43.608;1.236;2024-02-26T02:47:54;8.00;98.30
34768;DHT22;21755;43.608;1.236;2024-02-26T02:50:20;8.00;97.90
34768;DHT22;21755;43.608;1.236;2024-02-26T02:52:46;8.00;97.50
34768;DHT22;21755;43.608;1.236;2024-02-26T02:55:12;8.00;97.10
34768;DHT22;21755;43.608;1.236;2024-02-26T02:57:38;8.00;97.10
34768;DHT22;21755;43.608;1.236;2024-02-26T03:00:10;8.00;97.50
34768;DHT22;21755;43.608;1.236;2024-02-26T03:02:36;8.00;97.90
34768;DHT22;21755;43.608;1.236;2024-02-26T03:05:03;8.10;98.20
34768;DHT22;21755;43.608;1.236;2024-02-26T03:07:29;8.10;98.40
34768;DHT22;21755;43.608;1.236;2024-02-26T03:09:55;8.10;98.60
34768;DHT22;21755;43.608;1.236;2024-02-26T03:12:21;8.20;98.60
34768;DHT22;21755;43.608;1.236;2024-02-26T03:14:47;8.20;98.60
34768;DHT22;21755;43.608;1.236;2024-02-26T03:17:13;8.20;98.50
34768;DHT22;21755;43.608;1.236;2024-02-26T03:19:39;8.20;98.60
34768;DHT22;21755;43.608;1.236;2024-02-26T03:22:05;8.20;98.60
34768;DHT22;21755;43.608;1.236;2024-02-26T03:24:30;8.20;98.50
34768;DHT22;21755;43.608;1.236;2024-02-26T03:26:57;8.20;98.50
34768;DHT22;21755;43.608;1.236;2024-02-26T03:29:23;8.20;98.50
34768;DHT22;21755;43.608;1.236;2024-02-26T03:31:48;8.20;98.30
34768;DHT22;21755;43.608;1.236;2024-02-26T03:34:14;8.20;98.40
34768;DHT22;21755;43.608;1.236;2024-02-26T03:36:41;8.30;98.50
34768;DHT22;21755;43.608;1.236;2024-02-26T03:39:07;8.30;98.50
34768;DHT22;21755;43.608;1.236;2024-02-26T03:41:34;8.30;98.70
34768;DHT22;21755;43.608;1.236;2024-02-26T03:44:00;8.30;98.50
34768;DHT22;21755;43.608;1.236;2024-02-26T03:46:26;8.30;98.60
34768;DHT22;21755;43.608;1.236;2024-02-26T03:48:53;8.30;98.60
34768;DHT22;21755;43.608;1.236;2024-02-26T03:51:18;8.40;98.80
34768;DHT22;21755;43.608;1.236;2024-02-26T03:53:44;8.40;98.80
34768;DHT22;21755;43.608;1.236;2024-02-26T03:56:12;8.40;98.90
34768;DHT22;21755;43.608;1.236;2024-02-26T03:58:39;8.40;98.80
34768;DHT22;21755;43.608;1.236;2024-02-26T04:01:07;8.40;98.80
34768;DHT22;21755;43.608;1.236;2024-02-26T04:03:34;8.40;98.80
34768;DHT22;21755;43.608;1.236;2024-02-26T04:06:01;8.50;98.70
34768;DHT22;21755;43.608;1.236;2024-02-26T04:08:27;8.50;98.50
34768;DHT22;21755;43.608;1.236;2024-02-26T04:10:53;8.50;98.40
34768;DHT22;21755;43.608;1.236;2024-02-26T04:13:19;8.50;98.30
34768;DHT22;21755;43.608;1.236;2024-02-26T04:15:45;8.50;98.30
34768;DHT22;21755;43.608;1.236;2024-02-26T04:18:12;8.50;98.20
34768;DHT22;21755;43.608;1.236;2024-02-26T04:20:39;8.50;98.00
34768;DHT22;21755;43.608;1.236;2024-02-26T04:23:08;8.60;98.00
34768;DHT22;21755;43.608;1.236;2024-02-26T04:25:33;8.60;97.90
34768;DHT22;21755;43.608;1.236;2024-02-26T04:27:59;8.60;97.60
34768;DHT22;21755;43.608;1.236;2024-02-26T04:30:25;8.60;97.20
34768;DHT22;21755;43.608;1.236;2024-02-26T04:32:51;8.60;96.80
34768;DHT22;21755;43.608;1.236;2024-02-26T04:35:17;8.60;96.40
34768;DHT22;21755;43.608;1.236;2024-02-26T04:37:43;8.60;96.00
34768;DHT22;21755;43.608;1.236;2024-02-26T04:40:09;8.70;95.70
34768;DHT22;21755;43.608;1.236;2024-02-26T04:42:35;8.70;95.40
34768;DHT22;21755;43.608;1.236;2024-02-26T04:45:01;8.70;94.90
34768;DHT22;21755;43.608;1.236;2024-02-26T04:47:27;8.70;94.70
34768;DHT22;21755;43.608;1.236;2024-02-26T04:49:53;8.70;94.30
34768;DHT22;21755;43.608;1.236;2024-02-26T04:52:19;8.70;93.60
34768;DHT22;21755;43.608;1.236;2024-02-26T04:54:45;8.70;93.30
34768;DHT22;21755;43.608;1.236;2024-02-26T04:57:11;8.80;93.10
34768;DHT22;21755;43.608;1.236;2024-02-26T04:59:37;8.70;92.80
34768;DHT22;21755;43.608;1.236;2024-02-26T05:02:03;8.80;92.60
34768;DHT22;21755;43.608;1.236;2024-02-26T05:04:29;8.80;92.40
34768;DHT22;21755;43.608;1.236;2024-02-26T05:06:55;8.80;92.00
34768;DHT22;21755;43.608;1.236;2024-02-26T05:09:22;8.80;91.60
34768;DHT22;21755;43.608;1.236;2024-02-26T05:11:47;8.80;91.40
34768;DHT22;21755;43.608;1.236;2024-02-26T05:14:13;8.80;91.00
34768;DHT22;21755;43.608;1.236;2024-02-26T05:16:39;8.80;90.60
34768;DHT22;21755;43.608;1.236;2024-02-26T05:19:05;8.80;90.40
34768;DHT22;21755;43.608;1.236;2024-02-26T05:21:31;8.80;90.30
34768;DHT22;21755;43.608;1.236;2024-02-26T05:23:57;8.80;90.10
34768;DHT22;21755;43.608;1.236;2024-02-26T05:26:23;8.80;90.00
34768;DHT22;21755;43.608;1.236;2024-02-26T05:28:49;8.80;89.20
34768;DHT22;21755;43.608;1.236;2024-02-26T05:31:16;8.80;89.10
34768;DHT22;21755;43.608;1.236;2024-02-26T05:33:43;8.80;88.20
34768;DHT22;21755;43.608;1.236;2024-02-26T05:36:09;8.90;88.10
34768;DHT22;21755;43.608;1.236;2024-02-26T05:38:35;8.80;87.90
34768;DHT22;21755;43.608;1.236;2024-02-26T05:41:01;8.90;87.80
34768;DHT22;21755;43.608;1.236;2024-02-26T05:43:27;8.90;87.40
34768;DHT22;21755;43.608;1.236;2024-02-26T05:45:53;8.90;87.10
34768;DHT22;21755;43.608;1.236;2024-02-26T05:48:19;8.90;86.50
34768;DHT22;21755;43.608;1.236;2024-02-26T05:50:46;8.90;86.00
34768;DHT22;21755;43.608;1.236;2024-02-26T05:53:12;8.90;85.50
34768;DHT22;21755;43.608;1.236;2024-02-26T05:55:38;8.90;85.00
34768;DHT22;21755;43.608;1.236;2024-02-26T05:58:04;8.80;84.70
34768;DHT22;21755;43.608;1.236;2024-02-26T06:00:31;8.90;83.70
34768;DHT22;21755;43.608;1.236;2024-02-26T06:02:56;8.90;82.50
34768;DHT22;21755;43.608;1.236;2024-02-26T06:05:23;8.90;81.60
34768;DHT22;21755;43.608;1.236;2024-02-26T06:07:49;8.90;80.00
34768;DHT22;21755;43.608;1.236;2024-02-26T06:10:15;8.90;78.40
34768;DHT22;21755;43.608;1.236;2024-02-26T06:12:41;8.90;76.70
34768;DHT22;21755;43.608;1.236;2024-02-26T06:15:07;8.90;74.70
34768;DHT22;21755;43.608;1.236;2024-02-26T06:17:33;8.90;72.90
34768;DHT22;21755;43.608;1.236;2024-02-26T06:19:59;8.80;26.80
34768;DHT22;21755;43.608;1.236;2024-02-26T06:22:26;8.70;11.00
34768;DHT22;21755;43.608;1.236;2024-02-26T06:24:52;8.60;11.80
34768;DHT22;21755;43.608;1.236;2024-02-26T06:27:18;8.60;9.20
34768;DHT22;21755;43.608;1.236;2024-02-26T06:29:44;8.50;10.30
34768;DHT22;21755;43.608;1.236;2024-02-26T06:32:10;8.50;6.70
34768;DHT22;21755;43.608;1.236;2024-02-26T06:34:36;8.50;7.20
34768;DHT22;21755;43.608;1.236;2024-02-26T06:37:03;8.40;9.10
34768;DHT22;21755;43.608;1.236;2024-02-26T06:39:29;8.40;5.20
34768;DHT22;21755;43.608;1.236;2024-02-26T06:41:55;8.50;1.00
34768;DHT22;21755;43.608;1.236;2024-02-26T06:44:26;8.40;1.00
34768;DHT22;21755;43.608;1.236;2024-02-26T06:46:58;8.30;1.00
34768;DHT22;21755;43.608;1.236;2024-02-26T06:49:24;8.30;1.00
34768;DHT22;21755;43.608;1.236;2024-02-26T06:51:50;8.30;1.00
34768;DHT22;21755;43.608;1.236;2024-02-26T06:54:16;8.30;1.00
34768;DHT22;21755;43.608;1.236;2024-02-26T06:56:42;8.30;1.00
34768;DHT22;21755;43.608;1.236;2024-02-26T06:59:08;8.30;1.00
34768;DHT22;21755;43.608;1.236;2024-02-26T07:01:34;8.30;1.00
34768;DHT22;21755;43.608;1.236;2024-02-26T07:04:00;8.30;1.00
34768;DHT22;21755;43.608;1.236;2024-02-26T07:06:27;8.30;1.00
34768;DHT22;21755;43.608;1.236;2024-02-26T07:08:53;8.30;1.00
34768;DHT22;21755;43.608;1.236;2024-02-26T07:11:19;8.30;1.00
34768;DHT22;21755;43.608;1.236;2024-02-26T07:13:48;8.30;1.00
34768;DHT22;21755;43.608;1.236;2024-02-26T07:16:15;8.30;1.00
34768;DHT22;21755;43.608;1.236;2024-02-26T07:18:41;8.40;1.00
34768;DHT22;21755;43.608;1.236;2024-02-26T07:21:07;8.60;1.00
34768;DHT22;21755;43.608;1.236;2024-02-26T07:23:33;8.60;1.00
34768;DHT22;21755;43.608;1.236;2024-02-26T07:25:59;8.70;1.00
34768;DHT22;21755;43.608;1.236;2024-02-26T07:28:25;8.60;1.00
34768;DHT22;21755;43.608;1.236;2024-02-26T07:30:51;8.70;1.00
34768;DHT22;21755;43.608;1.236;2024-02-26T07:33:17;8.70;1.00
34768;DHT22;21755;43.608;1.236;2024-02-26T07:35:43;8.80;1.00
34768;DHT22;21755;43.608;1.236;2024-02-26T07:38:08;8.80;1.00
34768;DHT22;21755;43.608;1.236;2024-02-26T07:40:34;8.80;1.00
34768;DHT22;21755;43.608;1.236;2024-02-26T07:43:00;8.90;1.00
34768;DHT22;21755;43.608;1.236;2024-02-26T07:45:26;9.00;1.00
34768;DHT22;21755;43.608;1.236;2024-02-26T07:47:52;9.10;1.00
34768;DHT22;21755;43.608;1.236;2024-02-26T07:50:18;9.20;1.00
34768;DHT22;21755;43.608;1.236;2024-02-26T07:52:45;9.10;1.00
34768;DHT22;21755;43.608;1.236;2024-02-26T07:55:11;9.10;1.00
34768;DHT22;21755;43.608;1.236;2024-02-26T07:57:37;9.10;1.00
34768;DHT22;21755;43.608;1.236;2024-02-26T08:00:05;9.10;1.00
34768;DHT22;21755;43.608;1.236;2024-02-26T08:02:35;9.20;1.00
34768;DHT22;21755;43.608;1.236;2024-02-26T08:05:01;9.10;1.00
34768;DHT22;21755;43.608;1.236;2024-02-26T08:07:27;9.20;1.00
34768;DHT22;21755;43.608;1.236;2024-02-26T08:09:54;9.20;1.00
34768;DHT22;21755;43.608;1.236;2024-02-26T08:12:20;9.40;1.00
34768;DHT22;21755;43.608;1.236;2024-02-26T08:14:46;9.60;1.00
34768;DHT22;21755;43.608;1.236;2024-02-26T08:17:12;9.90;1.00
34768;DHT22;21755;43.608;1.236;2024-02-26T08:19:38;10.00;1.00
34768;DHT22;21755;43.608;1.236;2024-02-26T08:22:04;10.20;1.00
34768;DHT22;21755;43.608;1.236;2024-02-26T08:24:30;10.30;1.00
34768;DHT22;21755;43.608;1.236;2024-02-26T08:26:56;10.40;99.90
34768;DHT22;21755;43.608;1.236;2024-02-26T08:29:22;10.50;99.90
34768;DHT22;21755;43.608;1.236;2024-02-26T08:31:48;10.50;99.90
34768;DHT22;21755;43.608;1.236;2024-02-26T08:34:14;10.50;99.90
34768;DHT22;21755;43.608;1.236;2024-02-26T08:36:40;10.60;99.90
34768;DHT22;21755;43.608;1.236;2024-02-26T08:39:06;10.70;99.90
34768;DHT22;21755;43.608;1.236;2024-02-26T08:41:37;10.70;99.90
34768;DHT22;21755;43.608;1.236;2024-02-26T08:44:03;10.70;99.90
34768;DHT22;21755;43.608;1.236;2024-02-26T08:46:29;10.70;99.90
34768;DHT22;21755;43.608;1.236;2024-02-26T08:48:54;10.70;99.90
34768;DHT22;21755;43.608;1.236;2024-02-26T08:51:20;10.70;99.90
34768;DHT22;21755;43.608;1.236;2024-02-26T08:53:46;10.70;99.90
34768;DHT22;21755;43.608;1.236;2024-02-26T08:56:12;10.80;99.90
34768;DHT22;21755;43.608;1.236;2024-02-26T08:58:42;10.80;99.90
34768;DHT22;21755;43.608;1.236;2024-02-26T09:01:09;10.80;99.90
34768;DHT22;21755;43.608;1.236;2024-02-26T09:03:34;10.80;99.90
34768;DHT22;21755;43.608;1.236;2024-02-26T09:06:02;10.90;99.90
34768;DHT22;21755;43.608;1.236;2024-02-26T09:08:27;11.10;99.90
34768;DHT22;21755;43.608;1.236;2024-02-26T09:10:53;11.50;99.90
34768;DHT22;21755;43.608;1.236;2024-02-26T09:13:20;11.70;99.90
34768;DHT22;21755;43.608;1.236;2024-02-26T09:15:45;11.90;99.90
34768;DHT22;21755;43.608;1.236;2024-02-26T09:18:11;11.80;99.90
34768;DHT22;21755;43.608;1.236;2024-02-26T09:20:37;11.50;99.90
34768;DHT22;21755;43.608;1.236;2024-02-26T09:23:04;11.40;99.90
34768;DHT22;21755;43.608;1.236;2024-02-26T09:25:29;11.30;99.90
34768;DHT22;21755;43.608;1.236;2024-02-26T09:27:55;11.30;99.90
34768;DHT22;21755;43.608;1.236;2024-02-26T09:30:21;11.20;99.90
34768;DHT22;21755;43.608;1.236;2024-02-26T09:32:47;11.30;99.90
34768;DHT22;21755;43.608;1.236;2024-02-26T09:35:16;11.40;99.90
34768;DHT22;21755;43.608;1.236;2024-02-26T09:37:41;11.50;99.90
34768;DHT22;21755;43.608;1.236;2024-02-26T09:40:10;11.50;99.90
34768;DHT22;21755;43.608;1.236;2024-02-26T09:42:46;11.40;99.90
34768;DHT22;21755;43.608;1.236;2024-02-26T09:45:13;11.40;99.90
34768;DHT22;21755;43.608;1.236;2024-02-26T09:47:43;11.40;99.90
34768;DHT22;21755;43.608;1.236;2024-02-26T09:50:10;11.50;99.90
34768;DHT22;21755;43.608;1.236;2024-02-26T09:52:41;11.50;99.90
34768;DHT22;21755;43.608;1.236;2024-02-26T09:55:09;11.60;99.90
34768;DHT22;21755;43.608;1.236;2024-02-26T09:57:37;11.70;99.90
34768;DHT22;21755;43.608;1.236;2024-02-26T10:00:04;11.90;91.10
34768;DHT22;21755;43.608;1.236;2024-02-26T10:02:36;12.00;49.30
34768;DHT22;21755;43.608;1.236;2024-02-26T10:05:05;12.10;12.30
34768;DHT22;21755;43.608;1.236;2024-02-26T10:07:35;12.10;99.90
34768;DHT22;21755;43.608;1.236;2024-02-26T10:10:02;12.10;22.20
34768;DHT22;21755;43.608;1.236;2024-02-26T10:12:29;12.00;1.00
34768;DHT22;21755;43.608;1.236;2024-02-26T10:14:56;11.90;99.90
34768;DHT22;21755;43.608;1.236;2024-02-26T10:17:22;12.00;99.90
34768;DHT22;21755;43.608;1.236;2024-02-26T10:19:48;12.10;99.90
34768;DHT22;21755;43.608;1.236;2024-02-26T10:22:16;12.30;99.90
34768;DHT22;21755;43.608;1.236;2024-02-26T10:24:42;12.40;93.30
34768;DHT22;21755;43.608;1.236;2024-02-26T10:27:08;12.60;16.20
34768;DHT22;21755;43.608;1.236;2024-02-26T10:29:35;12.50;99.90
34768;DHT22;21755;43.608;1.236;2024-02-26T10:32:01;12.40;99.90
34768;DHT22;21755;43.608;1.236;2024-02-26T10:34:28;12.30;99.90
34768;DHT22;21755;43.608;1.236;2024-02-26T10:36:54;12.30;99.90
34768;DHT22;21755;43.608;1.236;2024-02-26T10:39:20;12.40;99.90
34768;DHT22;21755;43.608;1.236;2024-02-26T10:41:46;12.50;36.20
34768;DHT22;21755;43.608;1.236;2024-02-26T10:44:12;12.60;1.00
34768;DHT22;21755;43.608;1.236;2024-02-26T10:46:41;12.70;8.80
34768;DHT22;21755;43.608;1.236;2024-02-26T10:49:14;12.80;1.00
34768;DHT22;21755;43.608;1.236;2024-02-26T10:51:44;12.90;1.00
34768;DHT22;21755;43.608;1.236;2024-02-26T10:54:15;13.10;99.90
34768;DHT22;21755;43.608;1.236;2024-02-26T10:56:42;13.20;1.00
34768;DHT22;21755;43.608;1.236;2024-02-26T10:59:12;13.40;99.90
34768;DHT22;21755;43.608;1.236;2024-02-26T11:01:39;13.60;99.90
34768;DHT22;21755;43.608;1.236;2024-02-26T11:04:08;13.90;44.70
34768;DHT22;21755;43.608;1.236;2024-02-26T11:06:34;14.00;1.00
34768;DHT22;21755;43.608;1.236;2024-02-26T11:09:02;13.90;99.90
34768;DHT22;21755;43.608;1.236;2024-02-26T11:11:30;13.60;1.00
34768;DHT22;21755;43.608;1.236;2024-02-26T11:13:57;13.30;99.90
34768;DHT22;21755;43.608;1.236;2024-02-26T11:16:27;13.40;1.00
34768;DHT22;21755;43.608;1.236;2024-02-26T11:19:02;13.50;1.00
34768;DHT22;21755;43.608;1.236;2024-02-26T11:21:28;13.50;99.90
34768;DHT22;21755;43.608;1.236;2024-02-26T11:24:09;13.50;99.90
34768;DHT22;21755;43.608;1.236;2024-02-26T11:26:46;13.60;99.90
34768;DHT22;21755;43.608;1.236;2024-02-26T11:29:17;13.70;99.90
34768;DHT22;21755;43.608;1.236;2024-02-26T11:31:44;13.80;13.40
34768;DHT22;21755;43.608;1.236;2024-02-26T11:34:11;13.80;99.90
34768;DHT22;21755;43.608;1.236;2024-02-26T11:36:37;13.80;99.90
34768;DHT22;21755;43.608;1.236;2024-02-26T11:39:04;13.80;1.00
34768;DHT22;21755;43.608;1.236;2024-02-26T11:41:31;13.80;99.90
34768;DHT22;21755;43.608;1.236;2024-02-26T11:44:03;13.90;99.90
34768;DHT22;21755;43.608;1.236;2024-02-26T11:46:42;14.10;1.00
34768;DHT22;21755;43.608;1.236;2024-02-26T11:51:54;14.20;99.90
34768;DHT22;21755;43.608;1.236;2024-02-26T11:54:39;14.30;99.90
34768;DHT22;21755;43.608;1.236;2024-02-26T11:59:53;14.40;99.90
34768;DHT22;21755;43.608;1.236;2024-02-26T12:05:16;15.10;42.40
34768;DHT22;21755;43.608;1.236;2024-02-26T12:07:49;15.40;1.00
34768;DHT22;21755;43.608;1.236;2024-02-26T12:10:26;15.40;1.00
34768;DHT22;21755;43.608;1.236;2024-02-26T12:12:59;15.20;99.90
34768;DHT22;21755;43.608;1.236;2024-02-26T12:15:31;15.00;99.90
34768;DHT22;21755;43.608;1.236;2024-02-26T12:17:59;14.80;99.90
34768;DHT22;21755;43.608;1.236;2024-02-26T12:20:26;14.70;99.90
34768;DHT22;21755;43.608;1.236;2024-02-26T12:22:53;14.70;1.00
34768;DHT22;21755;43.608;1.236;2024-02-26T12:25:29;14.90;22.00
34768;DHT22;21755;43.608;1.236;2024-02-26T12:27:56;15.00;99.90
34768;DHT22;21755;43.608;1.236;2024-02-26T12:30:25;15.10;21.80
34768;DHT22;21755;43.608;1.236;2024-02-26T12:32:53;15.10;99.90
34768;DHT22;21755;43.608;1.236;2024-02-26T12:35:23;15.20;33.30
34768;DHT22;21755;43.608;1.236;2024-02-26T12:37:50;15.10;1.00
34768;DHT22;21755;43.608;1.236;2024-02-26T12:40:17;15.30;18.20
34768;DHT22;21755;43.608;1.236;2024-02-26T12:42:43;15.00;99.90
34768;DHT22;21755;43.608;1.236;2024-02-26T12:45:11;14.90;1.00
34768;DHT22;21755;43.608;1.236;2024-02-26T12:47:41;14.80;99.90
34768;DHT22;21755;43.608;1.236;2024-02-26T12:50:08;14.90;99.90
34768;DHT22;21755;43.608;1.236;2024-02-26T12:52:39;15.00;99.90
34768;DHT22;21755;43.608;1.236;2024-02-26T12:55:06;15.10;6.80
34768;DHT22;21755;43.608;1.236;2024-02-26T12:57:37;14.80;1.00
34768;DHT22;21755;43.608;1.236;2024-02-26T13:00:05;14.40;99.90
34768;DHT22;21755;43.608;1.236;2024-02-26T13:02:32;14.30;99.90
34768;DHT22;21755;43.608;1.236;2024-02-26T13:04:59;14.30;99.90
34768;DHT22;21755;43.608;1.236;2024-02-26T13:07:27;14.30;99.90
34768;DHT22;21755;43.608;1.236;2024-02-26T13:09:53;14.20;99.90
34768;DHT22;21755;43.608;1.236;2024-02-26T13:12:19;14.20;1.00
34768;DHT22;21755;43.608;1.236;2024-02-26T13:14:45;14.30;1.00
34768;DHT22;21755;43.608;1.236;2024-02-26T13:17:11;14.40;99.90
34768;DHT22;21755;43.608;1.236;2024-02-26T13:19:37;14.30;99.90
34768;DHT22;21755;43.608;1.236;2024-02-26T13:22:06;14.40;99.90
34768;DHT22;21755;43.608;1.236;2024-02-26T13:24:35;14.60;1.00
34768;DHT22;21755;43.608;1.236;2024-02-26T13:27:02;14.70;99.90
34768;DHT22;21755;43.608;1.236;2024-02-26T13:29:30;14.60;1.00
34768;DHT22;21755;43.608;1.236;2024-02-26T13:31:59;14.50;99.90
34768;DHT22;21755;43.608;1.236;2024-02-26T13:34:26;14.40;1.00
34768;DHT22;21755;43.608;1.236;2024-02-26T13:36:56;14.40;1.00
34768;DHT22;21755;43.608;1.236;2024-02-26T13:39:26;14.30;48.10
34768;DHT22;21755;43.608;1.236;2024-02-26T13:41:52;14.30;61.40
34768;DHT22;21755;43.608;1.236;2024-02-26T13:44:23;14.30;99.90
34768;DHT22;21755;43.608;1.236;2024-02-26T13:46:49;14.30;1.00
34768;DHT22;21755;43.608;1.236;2024-02-26T13:49:16;14.30;1.00
34768;DHT22;21755;43.608;1.236;2024-02-26T13:51:42;14.30;99.90
34768;DHT22;21755;43.608;1.236;2024-02-26T13:54:08;14.30;99.90
34768;DHT22;21755;43.608;1.236;2024-02-26T13:56:36;14.40;93.70
34768;DHT22;21755;43.608;1.236;2024-02-26T13:59:02;14.40;99.90
34768;DHT22;21755;43.608;1.236;2024-02-26T14:01:28;14.40;1.00
34768;DHT22;21755;43.608;1.236;2024-02-26T14:03:54;14.40;99.90
34768;DHT22;21755;43.608;1.236;2024-02-26T14:06:23;14.40;99.90
34768;DHT22;21755;43.608;1.236;2024-02-26T14:08:49;14.40;99.90
34768;DHT22;21755;43.608;1.236;2024-02-26T14:11:15;14.40;1.00
34768;DHT22;21755;43.608;1.236;2024-02-26T14:13:41;14.30;82.10
34768;DHT22;21755;43.608;1.236;2024-02-26T14:16:07;14.20;99.90
34768;DHT22;21755;43.608;1.236;2024-02-26T14:18:33;14.10;99.90
34768;DHT22;21755;43.608;1.236;2024-02-26T14:20:59;14.00;99.90
34768;DHT22;21755;43.608;1.236;2024-02-26T14:23:25;14.00;79.20
34768;DHT22;21755;43.608;1.236;2024-02-26T14:25:51;14.10;99.90
34768;DHT22;21755;43.608;1.236;2024-02-26T14:28:17;14.10;99.90
34768;DHT22;21755;43.608;1.236;2024-02-26T14:30:43;14.00;99.90
34768;DHT22;21755;43.608;1.236;2024-02-26T14:33:09;13.90;99.90
34768;DHT22;21755;43.608;1.236;2024-02-26T14:35:35;13.90;99.90
34768;DHT22;21755;43.608;1.236;2024-02-26T14:38:01;13.90;1.00
34768;DHT22;21755;43.608;1.236;2024-02-26T14:40:27;13.90;99.90
34768;DHT22;21755;43.608;1.236;2024-02-26T14:42:53;13.90;99.90
34768;DHT22;21755;43.608;1.236;2024-02-26T14:45:19;13.80;99.90
34768;DHT22;21755;43.608;1.236;2024-02-26T14:47:45;13.80;1.00
34768;DHT22;21755;43.608;1.236;2024-02-26T14:50:11;13.80;99.90
34768;DHT22;21755;43.608;1.236;2024-02-26T14:52:37;13.70;99.90
34768;DHT22;21755;43.608;1.236;2024-02-26T14:55:03;13.60;99.90
34768;DHT22;21755;43.608;1.236;2024-02-26T14:57:31;13.60;99.90
34768;DHT22;21755;43.608;1.236;2024-02-26T14:59:56;13.60;1.00
34768;DHT22;21755;43.608;1.236;2024-02-26T15:02:22;13.60;1.00
34768;DHT22;21755;43.608;1.236;2024-02-26T15:04:48;13.60;1.00
34768;DHT22;21755;43.608;1.236;2024-02-26T15:07:14;13.60;1.00
34768;DHT22;21755;43.608;1.236;2024-02-26T15:09:40;13.60;1.00
34768;DHT22;21755;43.608;1.236;2024-02-26T15:12:06;13.60;99.90
34768;DHT22;21755;43.608;1.236;2024-02-26T15:14:34;13.60;1.00
34768;DHT22;21755;43.608;1.236;2024-02-26T15:17:01;13.60;1.00
34768;DHT22;21755;43.608;1.236;2024-02-26T15:19:26;13.60;99.90
34768;DHT22;21755;43.608;1.236;2024-02-26T15:21:52;13.60;99.90
34768;DHT22;21755;43.608;1.236;2024-02-26T15:24:18;13.60;99.90
34768;DHT22;21755;43.608;1.236;2024-02-26T15:26:45;13.50;99.90
34768;DHT22;21755;43.608;1.236;2024-02-26T15:29:12;13.50;99.90
34768;DHT22;21755;43.608;1.236;2024-02-26T15:31:38;13.40;99.90
34768;DHT22;21755;43.608;1.236;2024-02-26T15:34:04;13.40;99.90
34768;DHT22;21755;43.608;1.236;2024-02-26T15:36:30;13.40;99.90
34768;DHT22;21755;43.608;1.236;2024-02-26T15:38:57;13.30;99.90
34768;DHT22;21755;43.608;1.236;2024-02-26T15:41:23;13.30;99.90
34768;DHT22;21755;43.608;1.236;2024-02-26T15:43:48;13.10;1.00
34768;DHT22;21755;43.608;1.236;2024-02-26T15:46:14;13.00;99.90
34768;DHT22;21755;43.608;1.236;2024-02-26T15:48:40;12.90;99.90